Time;durP1;ratioP1;P1;durP2;ratioP2;P2;SDS_P1;SDS_P2;PMS_P1;PMS_P2;Temp;Humidity;BMP_temperature;BMP_pressure;BME280_temperature;BME280_humidity;BME280_pressure;Samples;Min_cycle;Max_cycle;Signal;HPM_P1;HPM_P2
2022/10/06 00:01:26;;;;;;;3.95;1.65;;;;;;;14.34;72.23;98093.91;5025194;28;20125;-62
2022/10/06 00:03:53;;;;;;;2.38;1.20;;;;;;;14.31;72.33;98108.06;5021196;28;20122;-62
2022/10/06 00:06:19;;;;;;;4.03;1.30;;;;;;;14.37;71.80;98107.03;5016254;28;20137;-62
2022/10/06 00:08:46;;;;;;;6.18;1.35;;;;;;;14.41;71.55;98101.91;5025359;28;20420;-63
2022/10/06 00:11:14;;;;;;;5.90;1.50;;;;;;;14.30;72.25;98103.72;5022396;28;20464;-62
2022/10/06 00:13:41;;;;;;;6.78;1.60;;;;;;;14.32;71.85;98104.25;5026395;28;20398;-62
2022/10/06 00:16:16;;;;;;;2.55;1.30;;;;;;;14.29;72.30;98112.94;5018458;28;20073;-62
2022/10/06 00:18:43;;;;;;;3.88;1.40;;;;;;;14.24;72.56;98112.91;5025190;28;20704;-62
2022/10/06 00:21:09;;;;;;;3.97;1.42;;;;;;;14.23;72.10;98120.22;5025225;28;20269;-62
2022/10/06 00:23:36;;;;;;;5.05;1.40;;;;;;;14.14;73.03;98125.34;5026288;28;20067;-63
2022/10/06 00:26:02;;;;;;;3.08;1.42;;;;;;;14.03;73.34;98123.56;5025753;28;20120;-62
2022/10/06 00:28:28;;;;;;;4.53;1.45;;;;;;;13.86;74.09;98127.22;5026656;28;20128;-62
2022/10/06 00:31:00;;;;;;;3.67;1.50;;;;;;;13.73;75.10;98131.16;5056878;28;20037;-63
2022/10/06 00:33:27;;;;;;;3.95;1.73;;;;;;;13.58;75.81;98136.41;5026431;28;20120;-62
2022/10/06 00:35:57;;;;;;;6.15;1.60;;;;;;;13.57;76.16;98129.31;5026714;28;20034;-62
2022/10/06 00:38:25;;;;;;;3.08;1.45;;;;;;;13.35;77.71;98136.34;5030318;28;20083;-62
2022/10/06 00:40:52;;;;;;;3.58;1.50;;;;;;;13.03;79.86;98136.16;5027145;28;20481;-63
2022/10/06 00:43:37;;;;;;;3.58;1.60;;;;;;;12.61;82.63;98140.97;5026486;28;20544;-63
2022/10/06 00:46:06;;;;;;;6.47;1.55;;;;;;;12.43;84.06;98148.28;5024541;28;20434;-63
2022/10/06 00:48:33;;;;;;;5.40;1.90;;;;;;;12.54;82.78;98143.84;5026386;28;20038;-63
2022/10/06 00:51:00;;;;;;;3.85;1.33;;;;;;;12.44;83.70;98154.53;5025730;28;20076;-62
2022/10/06 00:53:28;;;;;;;4.22;1.50;;;;;;;12.40;83.97;98156.91;5024390;28;20519;-62
2022/10/06 00:55:56;;;;;;;5.93;1.90;;;;;;;12.31;84.87;98161.09;5026443;28;20128;-62
2022/10/06 00:58:23;;;;;;;3.40;1.55;;;;;;;12.25;85.31;98162.91;5024720;28;20624;-62
2022/10/06 01:00:54;;;;;;;4.45;1.70;;;;;;;12.34;85.20;98160.59;5025060;28;20056;-62
2022/10/06 01:03:28;;;;;;;4.80;1.90;;;;;;;12.13;86.35;98160.25;5025412;28;20488;-62
2022/10/06 01:05:56;;;;;;;3.65;1.90;;;;;;;11.92;87.79;98159.81;5026000;28;20548;-62
2022/10/06 01:08:24;;;;;;;4.68;1.67;;;;;;;11.77;88.88;98168.47;5023667;28;20042;-62
2022/10/06 01:10:51;;;;;;;7.50;2.33;;;;;;;11.40;91.11;98172.31;5023936;28;20116;-62
2022/10/06 01:13:20;;;;;;;5.45;1.45;;;;;;;11.34;91.54;98177.84;5024765;28;20037;-62
2022/10/06 01:15:52;;;;;;;4.18;1.88;;;;;;;11.24;92.29;98176.56;5025197;28;20045;-62
2022/10/06 01:18:21;;;;;;;4.40;1.75;;;;;;;11.21;93.07;98176.22;5015473;28;20365;-63
2022/10/06 01:20:54;;;;;;;4.35;1.70;;;;;;;11.29;92.10;98179.41;5027897;28;20129;-63
2022/10/06 01:23:21;;;;;;;5.88;2.33;;;;;;;11.16;93.11;98194.00;5023303;28;20045;-62
2022/10/06 01:25:48;;;;;;;3.47;1.52;;;;;;;11.25;92.69;98189.06;5027645;28;20076;-62
2022/10/06 01:28:14;;;;;;;4.03;1.65;;;;;;;11.39;91.95;98186.91;5027934;28;20064;-62
2022/10/06 01:30:51;;;;;;;8.68;2.00;;;;;;;11.37;92.05;98188.22;5027613;28;20073;-62
2022/10/06 01:33:20;;;;;;;4.43;1.83;;;;;;;11.43;91.66;98198.13;5028682;28;20136;-62
2022/10/06 01:35:50;;;;;;;4.78;1.55;;;;;;;11.42;91.75;98188.31;5028486;28;20065;-62
2022/10/06 01:38:18;;;;;;;9.20;2.25;;;;;;;11.31;92.51;98193.53;5024743;28;20052;-62
2022/10/06 01:40:50;;;;;;;2.35;1.40;;;;;;;11.17;93.21;98189.44;5007980;28;20140;-62
2022/10/06 01:43:16;;;;;;;7.45;2.03;;;;;;;11.14;93.47;98188.00;5057076;28;20100;-62
2022/10/06 01:45:42;;;;;;;5.15;2.35;;;;;;;11.16;93.51;98185.88;5029360;28;20152;-61
2022/10/06 01:48:09;;;;;;;6.47;1.80;;;;;;;11.00;94.30;98195.53;5029864;28;20092;-62
2022/10/06 01:50:39;;;;;;;3.88;1.90;;;;;;;10.93;94.59;98182.09;5027431;28;20556;-62
2022/10/06 01:53:06;;;;;;;3.50;1.77;;;;;;;10.99;94.74;98193.06;5028633;28;20189;-63
2022/10/06 01:55:32;;;;;;;5.32;1.88;;;;;;;10.85;95.60;98198.69;5029705;28;20450;-62
2022/10/06 01:58:00;;;;;;;5.82;2.42;;;;;;;10.70;96.39;98199.16;5027557;28;20075;-62
2022/10/06 02:00:27;;;;;;;6.88;2.20;;;;;;;10.76;96.10;98200.91;5027484;28;20156;-62
2022/10/06 02:02:56;;;;;;;7.60;2.58;;;;;;;10.70;96.42;98201.84;5060592;28;20404;-62
2022/10/06 02:05:22;;;;;;;5.28;2.05;;;;;;;10.74;96.20;98199.50;5027123;28;20195;-62
2022/10/06 02:07:51;;;;;;;7.75;2.20;;;;;;;10.66;96.93;98204.19;5027543;28;20057;-63
2022/10/06 02:10:18;;;;;;;6.00;2.55;;;;;;;10.61;96.98;98209.47;5027325;28;20421;-62
2022/10/06 02:12:52;;;;;;;6.28;2.10;;;;;;;10.56;97.43;98208.50;5027249;28;20409;-61
2022/10/06 02:15:20;;;;;;;6.15;2.15;;;;;;;10.49;97.94;98205.91;5059486;28;20509;-62
2022/10/06 02:17:47;;;;;;;6.68;2.20;;;;;;;10.54;97.71;98212.28;5026754;28;20154;-62
2022/10/06 02:20:14;;;;;;;3.47;1.88;;;;;;;10.50;98.31;98223.78;5025788;28;20041;-62
2022/10/06 02:22:42;;;;;;;8.98;2.03;;;;;;;10.45;98.74;98227.22;5026699;28;20042;-62
2022/10/06 02:25:11;;;;;;;4.03;1.98;;;;;;;10.43;98.51;98223.06;5028577;28;20049;-62
2022/10/06 02:27:38;;;;;;;7.75;2.55;;;;;;;10.43;99.10;98226.56;5025178;28;20058;-62
2022/10/06 02:30:07;;;;;;;5.68;1.88;;;;;;;10.47;98.76;98233.22;5052649;28;20069;-62
2022/10/06 02:32:37;;;;;;;5.13;1.80;;;;;;;10.46;99.04;98233.47;5018499;28;20061;-62
2022/10/06 02:35:05;;;;;;;6.68;2.38;;;;;;;10.36;99.70;98228.56;5026865;28;20053;-62
2022/10/06 02:37:33;;;;;;;6.20;2.30;;;;;;;10.19;100.00;98229.19;5026956;28;20044;-62
2022/10/06 02:40:01;;;;;;;5.05;1.80;;;;;;;10.16;100.00;98226.94;5060044;28;20088;-62
2022/10/06 02:42:29;;;;;;;5.20;2.17;;;;;;;10.24;100.00;98228.50;5025770;28;20045;-62
2022/10/06 02:44:57;;;;;;;8.13;2.35;;;;;;;10.17;100.00;98238.59;5026882;28;20045;-62
2022/10/06 02:47:24;;;;;;;8.52;2.50;;;;;;;10.21;100.00;98240.59;5026444;28;20045;-62
2022/10/06 02:49:52;;;;;;;3.65;2.00;;;;;;;10.10;100.00;98246.81;5026100;28;20052;-61
2022/10/06 02:52:19;;;;;;;5.47;2.28;;;;;;;10.05;100.00;98252.03;5027937;28;20041;-63
2022/10/06 02:54:46;;;;;;;5.38;2.38;;;;;;;10.18;100.00;98260.03;5025867;28;20037;-62
2022/10/06 02:57:14;;;;;;;5.18;2.20;;;;;;;10.22;100.00;98265.81;5028069;28;20121;-62
2022/10/06 02:59:41;;;;;;;4.20;1.70;;;;;;;10.21;100.00;98267.66;5027556;28;20459;-62
2022/10/06 03:02:08;;;;;;;3.30;2.10;;;;;;;10.04;100.00;98272.03;5025209;28;20038;-62
2022/10/06 03:04:35;;;;;;;4.13;2.22;;;;;;;9.94;100.00;98273.41;5026895;28;20042;-62
2022/10/06 03:07:02;;;;;;;6.03;2.30;;;;;;;9.91;100.00;98279.25;5026014;28;20053;-62
2022/10/06 03:09:33;;;;;;;7.90;2.40;;;;;;;10.02;100.00;98288.50;5028088;28;20033;-62
2022/10/06 03:12:00;;;;;;;6.50;2.63;;;;;;;10.11;100.00;98287.19;5025149;28;20049;-62
2022/10/06 03:14:38;;;;;;;5.65;2.67;;;;;;;10.15;100.00;98299.16;5026382;28;20501;-62
2022/10/06 03:17:08;;;;;;;5.53;3.10;;;;;;;10.20;100.00;98297.66;5025828;28;20103;-62
2022/10/06 03:19:38;;;;;;;6.47;3.08;;;;;;;10.25;100.00;98304.06;5025612;28;20564;-62
2022/10/06 03:22:05;;;;;;;7.70;2.80;;;;;;;10.30;100.00;98310.66;5025304;28;20060;-62
2022/10/06 03:24:38;;;;;;;4.82;2.72;;;;;;;10.23;100.00;98314.28;5058940;28;20821;-62
2022/10/06 03:27:05;;;;;;;6.55;2.60;;;;;;;10.22;100.00;98311.81;5026952;28;20033;-61
2022/10/06 03:29:31;;;;;;;7.82;2.55;;;;;;;10.29;100.00;98315.28;5059457;28;20501;-62
2022/10/06 03:31:58;;;;;;;10.00;3.83;;;;;;;10.85;100.00;98315.19;5025845;28;20049;-62
2022/10/06 03:34:25;;;;;;;6.38;3.08;;;;;;;10.98;100.00;98326.91;5026130;28;20554;-62
2022/10/06 03:36:53;;;;;;;8.30;2.70;;;;;;;11.52;100.00;98328.75;5025229;28;20046;-62
2022/10/06 03:39:22;;;;;;;5.38;3.10;;;;;;;11.62;100.00;98333.59;5059202;28;20045;-63
2022/10/06 03:41:49;;;;;;;6.93;3.20;;;;;;;11.70;100.00;98336.81;5024118;28;20053;-62
2022/10/06 03:44:15;;;;;;;6.35;3.40;;;;;;;12.08;100.00;98345.53;5023446;28;20050;-63
2022/10/06 03:46:42;;;;;;;8.32;3.63;;;;;;;12.18;100.00;98344.13;5022222;28;20096;-62
2022/10/06 03:49:09;;;;;;;9.35;4.00;;;;;;;12.76;100.00;98355.09;5021871;28;20053;-62
2022/10/06 03:51:38;;;;;;;9.45;3.80;;;;;;;13.32;100.00;98357.19;5018633;28;20513;-62
2022/10/06 03:54:09;;;;;;;7.15;3.53;;;;;;;13.46;100.00;98349.53;5017802;28;20500;-62
2022/10/06 03:56:39;;;;;;;7.35;3.63;;;;;;;13.68;100.00;98354.25;5017565;28;20042;-61
2022/10/06 03:59:10;;;;;;;8.48;3.85;;;;;;;13.86;100.00;98349.63;5022547;28;20086;-63
2022/10/06 04:01:43;;;;;;;8.70;3.38;;;;;;;14.08;99.16;98343.41;5026112;28;20240;-62
2022/10/06 04:04:13;;;;;;;8.27;3.33;;;;;;;14.17;98.28;98352.78;5024483;28;20092;-62
2022/10/06 04:06:42;;;;;;;8.02;3.15;;;;;;;14.25;97.60;98357.78;5025321;28;20077;-62
2022/10/06 04:09:13;;;;;;;6.75;3.15;;;;;;;14.34;96.57;98354.63;5024861;28;20572;-62
2022/10/06 04:11:43;;;;;;;7.63;4.10;;;;;;;14.25;97.14;98346.06;5057869;28;20049;-61
2022/10/06 04:14:14;;;;;;;6.72;3.53;;;;;;;14.21;97.18;98355.81;5024414;28;20051;-62
2022/10/06 04:16:49;;;;;;;10.32;3.10;;;;;;;14.17;97.58;98367.22;5024245;28;20057;-62
2022/10/06 04:19:36;;;;;;;8.18;3.03;;;;;;;14.17;97.50;98374.56;5026772;28;20061;-62
2022/10/06 04:22:02;;;;;;;8.55;3.63;;;;;;;14.13;97.93;98376.97;5023642;28;20083;-62
2022/10/06 04:24:29;;;;;;;8.07;3.20;;;;;;;14.06;98.56;98370.88;5024979;28;20054;-62
2022/10/06 04:27:26;;;;;;;6.32;2.90;;;;;;;14.09;97.81;98375.81;5024641;28;20300;-62
2022/10/06 04:29:48;;;;;;;11.20;4.47;;;;;;;14.05;98.23;98378.19;5016629;28;20416;-63
2022/10/06 04:32:15;;;;;;;6.20;3.20;;;;;;;14.02;98.37;98380.63;5026008;28;20558;-62
2022/10/06 04:34:41;;;;;;;7.40;3.28;;;;;;;14.09;97.90;98378.53;5019329;28;20081;-63
2022/10/06 04:37:09;;;;;;;11.32;3.25;;;;;;;14.17;97.80;98380.00;5025234;28;20033;-63
2022/10/06 04:39:37;;;;;;;6.55;3.05;;;;;;;14.21;97.32;98383.88;5058620;28;20539;-63
2022/10/06 04:42:05;;;;;;;6.50;3.20;;;;;;;14.16;97.64;98392.78;5050698;28;20058;-63
2022/10/06 04:44:32;;;;;;;6.50;3.50;;;;;;;14.15;97.50;98390.31;5021195;28;20034;-63
2022/10/06 04:47:00;;;;;;;6.78;2.75;;;;;;;14.19;97.53;98396.91;5009430;28;20149;-62
2022/10/06 04:49:27;;;;;;;9.98;4.15;;;;;;;14.19;96.88;98399.63;5024309;28;20077;-63
2022/10/06 04:51:55;;;;;;;7.50;3.60;;;;;;;14.18;97.53;98404.28;5023602;28;20053;-63
2022/10/06 04:54:21;;;;;;;8.40;3.05;;;;;;;14.14;97.73;98403.13;5023455;28;20061;-63
2022/10/06 04:56:53;;;;;;;5.70;3.03;;;;;;;14.16;97.78;98409.13;5024560;28;20073;-62
2022/10/06 05:00:21;;;;;;;5.82;2.60;;;;;;;14.12;98.11;98407.97;5022172;28;20038;-63
2022/10/06 05:02:10;;;;;;;5.88;2.42;;;;;;;14.11;97.78;98419.16;5022478;28;20674;-62
2022/10/06 05:04:37;;;;;;;5.68;3.08;;;;;;;14.08;98.81;98420.44;5023161;28;20111;-62
2022/10/06 05:07:04;;;;;;;8.15;2.75;;;;;;;14.17;97.93;98416.25;5021011;28;20054;-62
2022/10/06 05:09:31;;;;;;;6.22;2.90;;;;;;;14.18;97.97;98425.22;5018591;28;20053;-62
2022/10/06 05:11:59;;;;;;;7.00;3.15;;;;;;;14.20;97.73;98434.00;5022960;28;20041;-62
2022/10/06 05:14:25;;;;;;;8.52;3.15;;;;;;;14.21;97.80;98432.06;5025756;28;20556;-62
2022/10/06 05:16:52;;;;;;;6.75;2.97;;;;;;;14.16;97.94;98436.38;5056971;28;20124;-63
2022/10/06 05:19:19;;;;;;;6.80;3.03;;;;;;;14.17;97.94;98443.50;5023281;28;20139;-63
2022/10/06 05:21:46;;;;;;;7.05;2.88;;;;;;;14.17;97.92;98448.09;5006421;28;20133;-62
2022/10/06 05:24:16;;;;;;;8.05;2.63;;;;;;;14.16;97.96;98441.00;5023160;28;20045;-62
2022/10/06 05:26:42;;;;;;;8.90;3.58;;;;;;;14.17;97.98;98453.53;5025944;28;20484;-62
2022/10/06 05:29:12;;;;;;;7.35;3.08;;;;;;;14.13;98.13;98457.84;5020279;28;20608;-62
2022/10/06 05:31:41;;;;;;;5.97;2.63;;;;;;;14.08;99.10;98460.50;5017842;28;20049;-62
2022/10/06 05:34:08;;;;;;;8.88;3.10;;;;;;;14.04;98.81;98462.88;5015684;28;20077;-62
2022/10/06 05:36:35;;;;;;;8.50;2.80;;;;;;;14.05;98.69;98459.91;5019472;28;20045;-63
2022/10/06 05:39:04;;;;;;;6.13;2.85;;;;;;;14.03;98.69;98463.94;5021100;28;20516;-62
2022/10/06 05:41:36;;;;;;;6.47;2.80;;;;;;;14.04;98.13;98468.31;5020799;28;20129;-63
2022/10/06 05:44:06;;;;;;;8.32;4.28;;;;;;;14.01;98.04;98472.34;5021420;28;20491;-62
2022/10/06 05:46:34;;;;;;;5.32;2.63;;;;;;;13.98;97.85;98472.88;5021939;28;20104;-62
2022/10/06 05:49:03;;;;;;;8.25;2.70;;;;;;;13.96;98.10;98479.66;5022012;28;20500;-62
2022/10/06 05:51:32;;;;;;;8.65;3.70;;;;;;;13.90;98.58;98465.91;5019709;28;20088;-63
2022/10/06 05:54:03;;;;;;;8.50;2.90;;;;;;;14.02;97.32;98482.19;5020426;28;20467;-63
2022/10/06 05:56:31;;;;;;;5.53;2.47;;;;;;;13.95;97.83;98477.97;5023142;28;20080;-62
2022/10/06 05:58:59;;;;;;;7.50;2.80;;;;;;;13.97;96.85;98484.81;5021626;28;20107;-62
2022/10/06 06:01:35;;;;;;;5.80;2.50;;;;;;;13.96;96.86;98485.88;5021736;28;20060;-62
2022/10/06 06:04:11;;;;;;;6.72;2.55;;;;;;;14.02;95.92;98494.97;5021401;28;20041;-62
2022/10/06 06:06:46;;;;;;;8.18;2.90;;;;;;;14.00;95.99;98497.94;5021242;28;20698;-62
2022/10/06 06:09:18;;;;;;;4.50;2.65;;;;;;;14.03;95.96;98502.91;5037312;28;20539;-62
2022/10/06 06:11:49;;;;;;;7.07;3.00;;;;;;;14.06;95.27;98501.59;5039812;28;20049;-62
2022/10/06 06:17:06;;;;;;;4.88;2.10;;;;;;;14.41;92.58;98510.59;5024286;28;20053;-60
2022/10/06 06:19:33;;;;;;;9.73;2.20;;;;;;;14.36;92.96;98505.88;5025337;28;20128;-60
2022/10/06 06:22:00;;;;;;;8.00;2.25;;;;;;;14.35;92.36;98517.00;5023502;28;20508;-60
2022/10/06 06:24:27;;;;;;;15.93;2.72;;;;;;;14.30;92.36;98524.03;5041092;28;20049;-61
2022/10/06 06:26:54;;;;;;;7.32;1.98;;;;;;;14.35;91.16;98526.03;5015820;28;20768;-61
2022/10/06 06:29:22;;;;;;;5.57;1.80;;;;;;;14.28;91.82;98537.09;5024358;28;20508;-60
2022/10/06 06:31:49;;;;;;;2.80;1.60;;;;;;;14.29;91.42;98540.63;5025863;28;20120;-60
2022/10/06 06:34:16;;;;;;;20.25;4.15;;;;;;;14.22;92.69;98548.16;5024809;28;20128;-61
2022/10/06 06:36:45;;;;;;;6.10;2.13;;;;;;;14.21;92.32;98557.38;5024858;28;20053;-61
2022/10/06 06:39:16;;;;;;;5.60;1.75;;;;;;;14.25;92.29;98551.19;5024020;28;20046;-61
2022/10/06 06:41:45;;;;;;;4.45;2.00;;;;;;;14.31;92.67;98563.00;5023895;28;20077;-61
2022/10/06 06:44:33;;;;;;;5.65;2.10;;;;;;;14.34;92.65;98562.50;5016465;28;20060;-61
2022/10/06 06:47:03;;;;;;;7.65;3.75;;;;;;;14.31;92.23;98569.25;5024499;28;20504;-61
2022/10/06 06:49:30;;;;;;;4.70;2.25;;;;;;;14.41;90.88;98573.25;5024383;28;20441;-61
2022/10/06 06:52:03;;;;;;;5.88;2.15;;;;;;;14.33;91.11;98579.91;5024331;28;20107;-61
2022/10/06 06:54:32;;;;;;;3.80;1.77;;;;;;;14.26;91.58;98580.06;5024619;28;20049;-61
2022/10/06 06:57:06;;;;;;;4.82;2.45;;;;;;;14.21;92.11;98588.16;5018160;28;20045;-61
2022/10/06 06:59:32;;;;;;;6.45;2.50;;;;;;;14.18;92.18;98594.94;5023058;28;20053;-61
2022/10/06 07:01:59;;;;;;;5.65;2.10;;;;;;;14.16;92.32;98594.34;5023949;28;20077;-60
2022/10/06 07:04:29;;;;;;;7.63;2.00;;;;;;;14.14;91.91;98601.94;5021677;28;20683;-62
2022/10/06 07:06:56;;;;;;;4.57;1.80;;;;;;;14.12;92.54;98609.50;5020869;28;20537;-61
2022/10/06 07:09:27;;;;;;;5.68;1.98;;;;;;;14.19;91.48;98609.38;5024431;28;20049;-61
2022/10/06 07:12:02;;;;;;;7.72;2.50;;;;;;;14.18;91.27;98614.00;5021909;28;20053;-59
2022/10/06 07:14:30;;;;;;;5.35;1.88;;;;;;;14.26;89.72;98620.13;5020362;28;20123;-60
2022/10/06 07:25:25;;;;;;;8.27;1.40;;;;;;;14.20;89.24;98621.94;5018792;28;20053;-60
2022/10/06 07:28:01;;;;;;;8.68;1.63;;;;;;;14.27;87.46;98625.31;5022073;28;20044;-62
2022/10/06 07:30:31;;;;;;;;;;;;;;;14.20;87.65;98626.53;5021068;28;20567;-62
2022/10/06 07:33:10;;;;;;;;;;;;;;;14.11;87.12;98629.66;5023174;28;19972;-56
2022/10/06 07:35:38;;;;;;;3.85;1.50;;;;;;;14.11;86.92;98626.94;5025635;28;19921;-60
2022/10/06 07:38:06;;;;;;;13.02;2.05;;;;;;;14.03;88.19;98636.34;5025126;28;20045;-61
2022/10/06 07:40:40;;;;;;;6.18;1.80;;;;;;;14.11;87.86;98628.84;5024602;28;20091;-60
2022/10/06 07:43:16;;;;;;;4.65;1.60;;;;;;;14.15;87.12;98627.25;5055571;28;20044;-58
2022/10/06 07:45:45;;;;;;;4.32;1.33;;;;;;;14.23;85.12;98637.75;5024782;28;20103;-60
2022/10/06 07:48:31;;;;;;;4.97;1.67;;;;;;;14.22;85.70;98646.22;5027131;28;20059;-60
2022/10/06 07:51:00;;;;;;;4.72;1.30;;;;;;;14.30;84.49;98645.81;5024091;28;20041;-61
2022/10/06 07:53:32;;;;;;;5.50;1.38;;;;;;;14.39;83.88;98641.63;5021227;28;20127;-60
2022/10/06 07:56:07;;;;;;;8.05;1.45;;;;;;;14.47;83.88;98647.72;5041508;28;20707;-61
2022/10/06 07:58:38;;;;;;;6.15;1.70;;;;;;;14.43;84.35;98650.94;5057009;28;20045;-61
2022/10/06 08:01:07;;;;;;;6.43;1.33;;;;;;;14.49;83.79;98651.84;5026420;28;20121;-61
2022/10/06 08:03:35;;;;;;;6.07;1.38;;;;;;;14.52;83.71;98662.25;5025677;28;20037;-62
2022/10/06 08:06:02;;;;;;;11.70;1.92;;;;;;;14.65;81.01;98661.13;5022982;28;20041;-61
2022/10/06 08:08:31;;;;;;;77.18;10.35;;;;;;;14.62;80.23;98667.06;5024108;28;20049;-59
2022/10/06 08:10:58;;;;;;;9.13;2.13;;;;;;;14.64;79.99;98664.09;5023588;28;20047;-61
2022/10/06 08:13:27;;;;;;;3.47;1.00;;;;;;;14.76;80.86;98670.31;5019592;28;20663;-60
2022/10/06 08:15:55;;;;;;;5.28;1.20;;;;;;;14.81;80.39;98672.28;5024192;28;20124;-59
2022/10/06 08:18:23;;;;;;;6.60;2.28;;;;;;;14.92;80.23;98668.66;5024526;28;20409;-58
2022/10/06 08:21:16;;;;;;;9.25;3.00;;;;;;;14.87;79.68;98671.31;5023314;28;20049;-61
2022/10/06 08:23:45;;;;;;;3.88;1.30;;;;;;;14.97;79.36;98670.66;5023549;28;20041;-61
2022/10/06 08:26:13;;;;;;;6.50;1.30;;;;;;;14.94;79.79;98680.16;5015530;28;20120;-58
2022/10/06 08:28:44;;;;;;;19.05;3.53;;;;;;;14.84;80.86;98685.44;5015175;28;20116;-60
2022/10/06 08:31:11;;;;;;;;;;;;;;;15.07;79.67;98689.91;5025776;28;20075;-61
2022/10/06 08:33:38;;;;;;;5.30;1.10;;;;;;;15.00;78.67;98689.22;5026080;28;19921;-61
2022/10/06 08:36:07;;;;;;;2.67;1.25;;;;;;;15.05;76.91;98691.22;5026397;28;20049;-61
2022/10/06 08:38:37;;;;;;;3.97;1.00;;;;;;;15.07;76.59;98694.50;5023961;28;20053;-62
2022/10/06 08:41:16;;;;;;;5.40;1.55;;;;;;;14.87;78.09;98692.28;5023685;28;20053;-61
2022/10/06 08:43:53;;;;;;;6.63;2.90;;;;;;;14.70;79.21;98693.91;5018434;28;20046;-62
2022/10/06 08:46:23;;;;;;;4.70;1.52;;;;;;;14.86;77.88;98701.56;5012093;28;20394;-62
2022/10/06 08:48:50;;;;;;;5.90;1.50;;;;;;;14.83;78.28;98700.97;5023835;28;20053;-62
2022/10/06 08:51:42;;;;;;;4.13;1.08;;;;;;;14.77;78.56;98699.25;5023725;28;20045;-62
2022/10/06 08:54:12;;;;;;;3.70;1.17;;;;;;;14.81;80.09;98705.84;5022923;28;20123;-61
2022/10/06 08:57:04;;;;;;;9.50;1.63;;;;;;;14.86;78.03;98712.47;5023709;28;20247;-61
2022/10/06 08:59:34;;;;;;;;;;;;;;;14.88;77.15;98708.41;5024023;28;20291;-61
2022/10/06 09:02:05;;;;;;;7.60;1.70;;;;;;;15.04;76.76;98714.13;5022317;28;20008;-61
2022/10/06 09:04:33;;;;;;;3.20;0.95;;;;;;;15.04;75.85;98716.84;5022980;28;20037;-60
2022/10/06 09:07:10;;;;;;;3.47;0.90;;;;;;;15.04;76.90;98719.59;5023941;28;20063;-61
2022/10/06 09:10:02;;;;;;;7.05;1.30;;;;;;;15.10;76.28;98710.38;5022831;28;20046;-61
2022/10/06 09:12:41;;;;;;;6.53;1.25;;;;;;;15.12;78.21;98719.16;5014644;28;20113;-61
2022/10/06 09:15:14;;;;;;;4.40;1.33;;;;;;;15.35;76.28;98714.59;5025464;28;20630;-61
2022/10/06 09:17:49;;;;;;;3.65;0.98;;;;;;;15.42;76.12;98711.69;5022178;28;20049;-61
2022/10/06 09:20:31;;;;;;;5.85;1.10;;;;;;;15.23;77.05;98708.41;5023805;28;20144;-60
2022/10/06 09:23:00;;;;;;;7.10;1.30;;;;;;;15.22;77.40;98710.28;5022546;28;20050;-62
2022/10/06 09:25:28;;;;;;;4.15;1.20;;;;;;;15.52;76.22;98716.47;5023460;28;20077;-60
2022/10/06 09:27:57;;;;;;;3.97;1.10;;;;;;;15.46;76.26;98719.13;5022718;28;20041;-60
2022/10/06 09:30:25;;;;;;;111.95;13.93;;;;;;;15.38;76.08;98724.19;5023779;28;20053;-61
2022/10/06 09:33:01;;;;;;;10.70;1.63;;;;;;;15.33;76.30;98722.19;5023365;28;20099;-60
2022/10/06 09:35:30;;;;;;;7.80;1.50;;;;;;;15.24;76.91;98727.25;5023583;28;20056;-61
2022/10/06 09:38:02;;;;;;;5.57;1.25;;;;;;;15.40;76.44;98728.31;5024555;28;20084;-60
2022/10/06 09:40:37;;;;;;;16.70;1.70;;;;;;;15.38;77.17;98740.56;5027484;28;20053;-61
2022/10/06 09:43:17;;;;;;;63.38;7.05;;;;;;;15.28;77.55;98733.88;5028007;28;20076;-60
2022/10/06 09:45:43;;;;;;;9.95;1.40;;;;;;;14.97;80.30;98738.00;5019978;28;20057;-60
2022/10/06 09:48:12;;;;;;;18.33;2.28;;;;;;;15.09;79.46;98744.22;5025515;28;20468;-60
2022/10/06 09:50:39;;;;;;;13.40;2.80;;;;;;;14.95;79.75;98747.25;5025951;28;20072;-60
2022/10/06 09:53:11;;;;;;;12.98;1.65;;;;;;;14.98;78.79;98747.81;5026678;28;20140;-61
2022/10/06 09:55:37;;;;;;;12.75;1.73;;;;;;;15.17;77.50;98745.69;5026071;28;20050;-61
2022/10/06 09:58:31;;;;;;;8.82;1.40;;;;;;;15.30;78.07;98750.81;5022504;28;20045;-61
2022/10/06 10:01:00;;;;;;;9.48;1.38;;;;;;;15.39;77.70;98751.22;5025026;28;20120;-59
2022/10/06 10:03:50;;;;;;;9.43;1.55;;;;;;;15.62;76.55;98751.28;5025524;28;20230;-60
2022/10/06 10:06:36;;;;;;;5.75;1.40;;;;;;;15.45;76.33;98752.13;5023276;28;20112;-61
2022/10/06 10:09:18;;;;;;;53.30;6.35;;;;;;;15.20;77.83;98754.22;5025905;28;20128;-59
2022/10/06 10:12:23;;;;;;;4.88;1.00;;;;;;;15.56;75.21;98753.09;5020097;28;20041;-61
2022/10/06 10:14:50;;;;;;;7.43;1.00;;;;;;;15.79;74.51;98757.53;5017692;28;20149;-60
2022/10/06 10:17:21;;;;;;;10.68;1.67;;;;;;;15.49;75.40;98753.28;5025267;28;20715;-59
2022/10/06 10:19:53;;;;;;;17.73;3.08;;;;;;;15.58;74.09;98749.03;5020806;28;20037;-61
2022/10/06 10:22:23;;;;;;;8.98;1.42;;;;;;;15.85;73.32;98752.97;5025285;28;20067;-60
2022/10/06 10:24:58;;;;;;;5.03;1.23;;;;;;;15.81;73.06;98743.63;5025204;28;20033;-60
2022/10/06 10:27:50;;;;;;;7.35;1.40;;;;;;;15.73;72.31;98747.59;5019233;28;20556;-60
2022/10/06 10:30:17;;;;;;;8.57;0.93;;;;;;;15.91;70.51;98746.47;5013517;28;20143;-60
2022/10/06 10:32:49;;;;;;;7.13;1.10;;;;;;;15.90;69.99;98747.56;5025564;28;20124;-61
2022/10/06 10:35:30;;;;;;;8.60;1.63;;;;;;;15.92;70.50;98750.03;5025418;28;20125;-58
2022/10/06 10:38:03;;;;;;;6.07;2.58;;;;;;;15.91;70.83;98751.94;5026016;28;20041;-62
2022/10/06 10:40:46;;;;;;;8.95;2.22;;;;;;;15.90;69.49;98746.72;5025596;28;20124;-60
2022/10/06 10:43:19;;;;;;;4.97;1.10;;;;;;;16.19;67.84;98741.94;5025739;28;20545;-60
2022/10/06 10:46:00;;;;;;;3.22;0.80;;;;;;;16.43;67.36;98743.56;5025618;28;20120;-60
2022/10/06 10:48:46;;;;;;;10.82;1.20;;;;;;;16.29;66.95;98743.94;5025109;28;20120;-59
2022/10/06 10:51:25;;;;;;;4.43;1.00;;;;;;;16.30;66.82;98739.31;5015639;28;20049;-60
2022/10/06 10:54:08;;;;;;;4.57;1.13;;;;;;;16.28;69.00;98744.22;5021367;28;20044;-61
2022/10/06 10:56:35;;;;;;;37.45;4.53;;;;;;;16.25;67.89;98737.34;5025283;28;20124;-62
2022/10/06 10:59:15;;;;;;;7.63;1.85;;;;;;;16.15;68.10;98739.97;5024674;28;20156;-61
2022/10/06 11:02:09;;;;;;;22.60;3.63;;;;;;;16.15;69.14;98740.81;5022993;28;20050;-61
2022/10/06 11:04:42;;;;;;;6.82;1.02;;;;;;;16.52;68.38;98736.56;5022287;28;20034;-62
2022/10/06 11:07:35;;;;;;;5.90;1.38;;;;;;;16.75;66.38;98738.16;5024858;28;20040;-62
2022/10/06 11:10:12;;;;;;;4.03;0.77;;;;;;;16.84;65.33;98738.50;5021816;28;20099;-63
2022/10/06 11:12:56;;;;;;;11.32;1.92;;;;;;;16.72;64.36;98741.41;5024179;28;20044;-61
2022/10/06 11:15:56;;;;;;;7.50;1.42;;;;;;;16.86;63.67;98740.97;5022778;28;20037;-62
2022/10/06 11:18:41;;;;;;;8.45;1.52;;;;;;;16.76;63.25;98744.44;5025601;28;20487;-61
2022/10/06 11:21:14;;;;;;;4.43;0.90;;;;;;;16.86;63.31;98740.97;5014044;28;20051;-64
2022/10/06 11:23:52;;;;;;;6.68;1.17;;;;;;;16.68;65.28;98737.53;5025374;28;20045;-64
2022/10/06 11:26:49;;;;;;;4.90;1.00;;;;;;;16.59;65.69;98736.34;5025463;28;20076;-64
2022/10/06 11:29:44;;;;;;;3.55;0.85;;;;;;;16.25;67.85;98731.88;5017580;28;20386;-61
2022/10/06 11:32:38;;;;;;;6.80;1.58;;;;;;;16.43;67.14;98721.69;5024973;28;20124;-61
2022/10/06 11:35:23;;;;;;;4.70;0.82;;;;;;;16.16;67.18;98730.69;5021557;28;20043;-60
2022/10/06 11:37:57;;;;;;;8.30;1.10;;;;;;;16.09;69.33;98719.94;5020237;28;20718;-62
2022/10/06 11:40:37;;;;;;;5.10;1.10;;;;;;;16.40;66.98;98724.94;5024999;28;20045;-61
2022/10/06 11:43:11;;;;;;;4.55;0.82;;;;;;;16.42;65.63;98714.56;5024953;28;20041;-60
2022/10/06 11:45:59;;;;;;;4.40;1.00;;;;;;;16.50;64.63;98714.09;5024426;28;20057;-60
2022/10/06 11:48:30;;;;;;;7.03;1.17;;;;;;;16.56;63.39;98718.56;5024701;28;20037;-63
2022/10/06 11:51:22;;;;;;;7.00;1.00;;;;;;;16.68;64.32;98720.28;5024559;28;20037;-63
2022/10/06 11:53:50;;;;;;;6.85;1.10;;;;;;;16.91;64.34;98713.66;5024522;28;20042;-58
2022/10/06 11:56:16;;;;;;;40.45;3.65;;;;;;;17.05;64.81;98718.72;5023369;28;20049;-64
2022/10/06 11:58:55;;;;;;;11.25;2.63;;;;;;;17.07;64.09;98717.41;5023712;28;20521;-61
2022/10/06 12:01:33;;;;;;;5.05;0.93;;;;;;;17.26;62.44;98711.50;5022208;28;20038;-60
2022/10/06 12:04:20;;;;;;;6.47;1.08;;;;;;;17.39;60.86;98716.50;5024059;28;20144;-61